Uacc Ibn Sina — 9HTT9 — position and weather

sailwx.info

Track history (hours):
 
Tides and Currents Weather Stations Pressure Air Temp Water Temp Dewpoint Dewpoint Depression Visibility Wind Speed Wind Dir Waves Ship Positions

Uacc Ibn Sina

Last reported at 2018-Jun-25 04:03 UTC. Time now 2018-Jun-25 19:27 UTC.
Position N 01°24' E 104°27'.

Length 228 m; draft 12.2 m.

Type: Ship (hazmat cat A). MMSI: 249497000.

Date/timePositionNaut miles runAvg speedWind from/ knotsBaromVisibWave heightAir tempDewpointWater temp
2018-Jun-25 04:03N 01°24' E 104°27'311.0
2018-Jun-25 03:47N 01°22' E 104°25'410.5
2018-Jun-25 03:27N 01°19' E 104°23'510.3
2018-Jun-25 02:58N 01°17' E 104°18'510.7
2018-Jun-25 02:30N 01°16' E 104°13'610.9
2018-Jun-25 01:55N 01°15' E 104°07'510.6
2018-Jun-25 01:30N 01°14' E 104°03'5 9.8
2018-Jun-25 00:59N 01°14' E 103°58'510.0
2018-Jun-25 00:30N 01°12' E 103°53'4 8.4
2018-Jun-25 00:01N 01°12' E 103°49'3 5.1
2018-Jun-24 23:30N 01°14' E 103°48'1 2.6
2018-Jun-24 23:00N 01°13' E 103°49'0 0.1
2018-Jun-24 22:24N 01°13' E 103°49'0 0.1
2018-Jun-24 21:55N 01°13' E 103°49'0 0.1
2018-Jun-24 21:28N 01°13' E 103°49'0 0.0
2018-Jun-24 21:00N 01°13' E 103°49'0 0.0
2018-Jun-24 20:28N 01°13' E 103°49'0 0.0
2018-Jun-24 19:57N 01°13' E 103°49'0 0.0
2018-Jun-24 19:30N 01°13' E 103°49'0 0.0
2018-Jun-24 19:00N 01°13' E 103°49'0 0.0
2018-Jun-24 18:27N 01°13' E 103°49'0 0.0
2018-Jun-24 18:00N 01°13' E 103°49'0 0.0
2018-Jun-24 17:30N 01°13' E 103°49'0 0.1
2018-Jun-24 16:58N 01°13' E 103°49'0 0.2
2018-Jun-24 16:27N 01°13' E 103°49'0 0.2
2018-Jun-24 15:59N 01°13' E 103°49'1 2.8
2018-Jun-24 15:30N 01°13' E 103°48'4 8.0
2018-Jun-24 15:00N 01°15' E 103°44'610.8
2018-Jun-24 14:28N 01°12' E 103°39'4 7.9
2018-Jun-24 13:59N 01°12' E 103°35'2 4.7
2018-Jun-24 13:30N 01°10' E 103°33'2 3.6
2018-Jun-24 12:59N 01°10' E 103°32'1 1.8
2018-Jun-24 12:30N 01°10' E 103°31'3 5.8
2018-Jun-24 12:01N 01°10' E 103°28'5 9.5
2018-Jun-24 11:29N 01°13' E 103°24'611.4
2018-Jun-24 10:58N 01°17' E 103°19'  
Track history (hours):
 
Tides and Currents Weather Stations Pressure Air Temp Water Temp Dewpoint Dewpoint Depression Visibility Wind Speed Wind Dir Waves Ship Positions

Uacc Ibn Sina

Last reported at 2018-Jun-25 04:03 UTC. Time now 2018-Jun-25 19:27 UTC.
Position N 01°24' E 104°27'.

Length 228 m; draft 12.2 m.

Type: Ship (hazmat cat A). MMSI: 249497000.

Date/timePositionNaut miles runAvg speedWind from/ knotsBaromVisibWave heightAir tempDewpointWater temp
2018-Jun-25 04:03N 01°24' E 104°27'311.0
2018-Jun-25 03:47N 01°22' E 104°25'410.5
2018-Jun-25 03:27N 01°19' E 104°23'510.3
2018-Jun-25 02:58N 01°17' E 104°18'510.7
2018-Jun-25 02:30N 01°16' E 104°13'610.9
2018-Jun-25 01:55N 01°15' E 104°07'510.6
2018-Jun-25 01:30N 01°14' E 104°03'5 9.8
2018-Jun-25 00:59N 01°14' E 103°58'510.0
2018-Jun-25 00:30N 01°12' E 103°53'4 8.4
2018-Jun-25 00:01N 01°12' E 103°49'3 5.1
2018-Jun-24 23:30N 01°14' E 103°48'1 2.6
2018-Jun-24 23:00N 01°13' E 103°49'0 0.1
2018-Jun-24 22:24N 01°13' E 103°49'0 0.1
2018-Jun-24 21:55N 01°13' E 103°49'0 0.1
2018-Jun-24 21:28N 01°13' E 103°49'0 0.0
2018-Jun-24 21:00N 01°13' E 103°49'0 0.0
2018-Jun-24 20:28N 01°13' E 103°49'0 0.0
2018-Jun-24 19:57N 01°13' E 103°49'0 0.0
2018-Jun-24 19:30N 01°13' E 103°49'0 0.0
2018-Jun-24 19:00N 01°13' E 103°49'0 0.0
2018-Jun-24 18:27N 01°13' E 103°49'0 0.0
2018-Jun-24 18:00N 01°13' E 103°49'0 0.0
2018-Jun-24 17:30N 01°13' E 103°49'0 0.1
2018-Jun-24 16:58N 01°13' E 103°49'0 0.2
2018-Jun-24 16:27N 01°13' E 103°49'0 0.2
2018-Jun-24 15:59N 01°13' E 103°49'1 2.8
2018-Jun-24 15:30N 01°13' E 103°48'4 8.0
2018-Jun-24 15:00N 01°15' E 103°44'610.8
2018-Jun-24 14:28N 01°12' E 103°39'4 7.9
2018-Jun-24 13:59N 01°12' E 103°35'2 4.7
2018-Jun-24 13:30N 01°10' E 103°33'2 3.6
2018-Jun-24 12:59N 01°10' E 103°32'1 1.8
2018-Jun-24 12:30N 01°10' E 103°31'3 5.8
2018-Jun-24 12:01N 01°10' E 103°28'5 9.5
2018-Jun-24 11:29N 01°13' E 103°24'611.4
2018-Jun-24 10:58N 01°17' E 103°19'  

Dump ship's entire track history